Time;durP1;ratioP1;P1;durP2;ratioP2;P2;SDS_P1;SDS_P2;PMS_P1;PMS_P2;Temp;Humidity;BMP_temperature;BMP_pressure;BME280_temperature;BME280_humidity;BME280_pressure;Samples;Min_cycle;Max_cycle;Signal;HPM_P1;HPM_P2
2022/07/16 00:06:00;;;;;;;12.57;10.80;;;16.90;99.90;;;;;;21051258;28;20419;-59
2022/07/16 00:16:02;;;;;;;11.98;10.70;;;17.00;99.90;;;;;;21049507;28;20056;-53
2022/07/16 00:26:05;;;;;;;11.35;9.48;;;17.10;99.90;;;;;;21009517;28;20032;-60
2022/07/16 00:36:07;;;;;;;11.07;9.52;;;17.10;99.90;;;;;;20966288;28;20040;-59
2022/07/16 00:46:10;;;;;;;12.02;9.30;;;17.20;99.90;;;;;;20965955;28;20037;-59
2022/07/16 00:56:14;;;;;;;10.93;8.82;;;17.10;99.90;;;;;;20981456;28;20393;-59
2022/07/16 01:06:17;;;;;;;9.40;7.85;;;17.20;99.90;;;;;;21048211;28;20433;-59
2022/07/16 01:16:20;;;;;;;9.35;8.43;;;17.20;99.90;;;;;;21048557;28;20070;-58
2022/07/16 01:26:22;;;;;;;10.40;7.60;;;17.40;99.90;;;;;;21060875;28;20032;-59
2022/07/16 01:36:25;;;;;;;8.95;8.07;;;17.50;99.90;;;;;;21062348;28;20554;-59
2022/07/16 01:46:27;;;;;;;9.93;8.57;;;17.40;99.90;;;;;;21015817;28;20592;-54
2022/07/16 01:56:30;;;;;;;14.70;9.77;;;17.10;99.90;;;;;;20976742;28;20044;-58
2022/07/16 02:06:32;;;;;;;11.15;9.40;;;16.90;99.90;;;;;;20976548;28;20101;-58
2022/07/16 02:16:34;;;;;;;12.10;9.82;;;16.70;99.90;;;;;;20975356;28;20082;-59
2022/07/16 02:26:37;;;;;;;12.75;11.45;;;16.60;99.90;;;;;;21015690;28;20349;-52
2022/07/16 02:36:39;;;;;;;12.82;11.52;;;16.60;99.90;;;;;;21056490;28;20098;-52
2022/07/16 02:46:41;;;;;;;15.23;12.95;;;16.70;99.90;;;;;;21056530;28;20043;-59
2022/07/16 02:56:44;;;;;;;17.00;13.65;;;16.60;99.90;;;;;;21036181;28;20040;-59
2022/07/16 03:06:47;;;;;;;16.45;14.57;;;16.50;99.90;;;;;;20971066;28;20505;-59
2022/07/16 03:16:49;;;;;;;16.38;14.68;;;16.50;99.90;;;;;;20989263;28;20037;-58
2022/07/16 03:26:51;;;;;;;14.45;13.05;;;16.60;99.90;;;;;;20970320;28;20074;-59
2022/07/16 03:36:53;;;;;;;17.20;13.65;;;16.60;99.90;;;;;;20969083;28;20443;-58
2022/07/16 03:46:56;;;;;;;17.23;14.55;;;16.60;99.90;;;;;;21001570;28;20040;-54
2022/07/16 03:56:59;;;;;;;14.73;13.23;;;16.50;99.90;;;;;;21051510;28;20055;-54
2022/07/16 04:07:01;;;;;;;14.23;12.23;;;16.50;99.90;;;;;;21050782;28;20093;-59
2022/07/16 04:17:04;;;;;;;14.05;12.15;;;16.40;99.90;;;;;;21050891;28;20480;-59
2022/07/16 04:27:06;;;;;;;12.48;11.18;;;16.30;99.90;;;;;;20999961;28;20037;-59
2022/07/16 04:37:08;;;;;;;13.02;11.63;;;16.40;99.90;;;;;;20968160;28;20041;-59
2022/07/16 04:47:11;;;;;;;11.73;10.52;;;16.50;99.90;;;;;;20966212;28;20098;-59
2022/07/16 04:57:14;;;;;;;12.15;10.95;;;16.60;99.90;;;;;;20996524;28;20036;-58
2022/07/16 05:07:17;;;;;;;14.20;11.02;;;16.70;99.90;;;;;;21064014;28;20558;-53
2022/07/16 05:17:19;;;;;;;11.50;10.23;;;16.80;99.90;;;;;;21063497;28;20028;-58
2022/07/16 05:27:22;;;;;;;13.30;9.48;;;17.10;99.90;;;;;;21062767;28;20036;-55
2022/07/16 05:37:25;;;;;;;11.75;10.60;;;17.30;99.90;;;;;;21061291;28;20044;-59
2022/07/16 05:47:27;;;;;;;12.48;11.23;;;17.40;99.90;;;;;;21024763;28;20401;-59
2022/07/16 05:57:30;;;;;;;13.38;10.52;;;17.50;99.90;;;;;;20976525;28;20032;-53
2022/07/16 06:07:33;;;;;;;12.80;11.35;;;17.80;99.90;;;;;;20974968;28;20098;-54
2022/07/16 06:17:35;;;;;;;10.02;7.57;;;18.20;99.90;;;;;;20975391;28;20440;-54
2022/07/16 06:27:44;;;;;;;7.55;5.30;;;22.20;99.90;;;;;;21029214;28;20085;-59
2022/07/16 06:37:46;;;;;;;5.57;4.65;;;24.00;99.90;;;;;;21057473;28;20096;-60
2022/07/16 06:47:49;;;;;;;5.30;4.40;;;27.10;96.00;;;;;;21056351;28;20036;-57
2022/07/16 06:57:52;;;;;;;7.90;5.40;;;29.20;90.80;;;;;;21026927;28;20103;-60
2022/07/16 07:07:54;;;;;;;5.28;4.60;;;29.70;89.20;;;;;;20971011;28;20497;-57
2022/07/16 07:17:56;;;;;;;6.15;5.20;;;30.40;85.50;;;;;;20970268;28;20040;-61
2022/07/16 07:27:59;;;;;;;7.22;5.57;;;31.10;84.80;;;;;;20969706;28;20033;-62
2022/07/16 07:38:01;;;;;;;5.82;5.35;;;31.50;83.50;;;;;;20970360;28;20036;-62
2022/07/16 07:48:03;;;;;;;5.45;4.95;;;31.80;79.50;;;;;;21010902;28;20500;-62
2022/07/16 07:58:07;;;;;;;4.50;4.10;;;31.90;75.80;;;;;;21051524;28;20090;-58
2022/07/16 08:08:09;;;;;;;5.22;4.80;;;32.10;74.10;;;;;;21034984;28;20048;-62
2022/07/16 08:18:11;;;;;;;4.35;4.03;;;30.70;75.70;;;;;;21050476;28;20044;-62
2022/07/16 08:28:15;;;;;;;7.93;6.40;;;30.00;73.80;;;;;;20991418;28;20093;-62
2022/07/16 08:38:17;;;;;;;5.30;4.80;;;30.40;76.30;;;;;;20983053;28;20112;-62
2022/07/16 08:48:20;;;;;;;6.88;6.13;;;30.40;76.90;;;;;;20981537;28;20533;-58
2022/07/16 08:58:25;;;;;;;5.43;4.55;;;30.10;74.70;;;;;;21013901;28;20036;-62
2022/07/16 09:08:27;;;;;;;5.65;4.90;;;30.00;79.10;;;;;;21062771;28;20048;-62
2022/07/16 09:18:30;;;;;;;7.85;5.15;;;29.90;79.90;;;;;;21064630;28;20040;-60
2022/07/16 09:28:43;;;;;;;7.78;5.00;;;28.80;78.40;;;;;;21062569;28;20535;-61
2022/07/16 09:38:52;;;;;;;6.80;6.10;;;27.30;83.30;;;;;;21061300;28;20506;-55
2022/07/16 09:48:55;;;;;;;8.25;7.43;;;26.10;87.00;;;;;;21011539;28;20097;-62
2022/07/16 09:58:58;;;;;;;9.80;7.53;;;27.50;89.20;;;;;;20975953;28;20094;-61
2022/07/16 10:09:01;;;;;;;10.23;8.65;;;28.60;84.40;;;;;;20975220;28;20048;-62
2022/07/16 10:19:04;;;;;;;7.30;6.60;;;28.70;83.10;;;;;;20974790;28;20032;-63
2022/07/16 10:29:06;;;;;;;7.57;5.72;;;29.20;83.30;;;;;;20991004;28;20037;-62
2022/07/16 10:39:14;;;;;;;7.72;6.43;;;29.20;81.80;;;;;;20957030;28;20539;-63
2022/07/16 10:49:17;;;;;;;5.65;5.07;;;30.90;79.10;;;;;;20972945;28;20371;-63
2022/07/16 10:59:23;;;;;;;6.18;4.82;;;30.70;78.50;;;;;;21012647;28;20439;-63
2022/07/16 11:09:34;;;;;;;6.97;5.45;;;31.60;77.50;;;;;;21054758;28;20097;-63
2022/07/16 11:19:42;;;;;;;6.00;5.50;;;32.30;77.20;;;;;;21054169;28;20373;-63
2022/07/16 11:29:45;;;;;;;8.27;5.10;;;32.50;75.40;;;;;;21053022;28;20031;-63
2022/07/16 11:39:48;;;;;;;5.88;5.38;;;32.90;73.60;;;;;;21051694;28;20036;-63
2022/07/16 11:49:50;;;;;;;6.07;5.28;;;32.70;73.30;;;;;;21011558;28;20066;-62
2022/07/16 11:59:55;;;;;;;5.78;5.18;;;32.90;74.40;;;;;;20968043;28;20097;-62
2022/07/16 12:09:59;;;;;;;5.88;5.28;;;32.70;73.30;;;;;;20967978;28;20078;-58
2022/07/16 12:20:01;;;;;;;7.10;4.88;;;32.70;72.40;;;;;;20967266;28;20506;-63
2022/07/16 12:30:05;;;;;;;7.15;5.55;;;32.50;72.30;;;;;;21041302;28;20036;-63
2022/07/16 12:40:12;;;;;;;5.80;5.13;;;32.70;72.10;;;;;;21049949;28;20036;-58
2022/07/16 12:50:18;;;;;;;5.43;4.65;;;32.70;71.80;;;;;;21049616;28;20055;-62
2022/07/16 13:00:22;;;;;;;5.17;4.67;;;32.50;73.30;;;;;;20982830;28;20044;-63
2022/07/16 13:10:25;;;;;;;9.95;5.32;;;32.30;72.20;;;;;;20965267;28;20048;-58
2022/07/16 13:20:28;;;;;;;6.00;5.13;;;32.30;71.70;;;;;;20974805;28;20375;-63
2022/07/16 13:30:30;;;;;;;9.13;5.05;;;32.30;72.90;;;;;;20995643;28;20375;-63
2022/07/16 13:40:34;;;;;;;5.57;4.82;;;32.10;72.70;;;;;;20978306;28;20037;-63
2022/07/16 13:50:37;;;;;;;9.10;5.60;;;32.70;71.90;;;;;;21040621;28;20473;-63
2022/07/16 14:00:50;;;;;;;6.88;5.38;;;32.70;71.00;;;;;;21010732;28;20062;-60
2022/07/16 14:10:53;;;;;;;6.07;5.43;;;32.20;72.40;;;;;;20975708;28;20040;-62
2022/07/16 14:20:56;;;;;;;5.95;5.45;;;32.40;72.60;;;;;;20976272;28;20101;-63
2022/07/16 14:30:59;;;;;;;6.63;6.00;;;32.50;72.50;;;;;;20900934;28;20045;-63
2022/07/16 14:41:01;;;;;;;6.85;6.25;;;;;;;;;;20890802;28;20394;-62
2022/07/16 14:51:04;;;;;;;6.53;5.75;;;32.80;70.40;;;;;;20889937;28;20434;-62
2022/07/16 15:01:08;;;;;;;7.03;6.23;;;32.90;71.70;;;;;;21017701;28;20035;-57
2022/07/16 15:11:11;;;;;;;6.60;6.10;;;33.00;70.30;;;;;;21054430;28;20465;-63
2022/07/16 15:21:14;;;;;;;6.57;5.90;;;33.30;70.00;;;;;;21053738;28;20036;-62
2022/07/16 15:31:17;;;;;;;5.70;5.20;;;33.20;70.60;;;;;;21053133;28;20447;-58
2022/07/16 15:41:20;;;;;;;;;;;33.50;69.60;;;;;;21052734;28;20097;-63
2022/07/16 15:51:23;;;;;;;6.28;5.68;;;33.20;69.90;;;;;;20962085;28;19996;-62
2022/07/16 16:01:26;;;;;;;5.55;5.05;;;32.60;70.50;;;;;;20969437;28;20130;-62
2022/07/16 16:11:29;;;;;;;5.40;4.90;;;32.00;71.90;;;;;;20967044;28;20106;-62
2022/07/16 16:21:31;;;;;;;6.28;5.05;;;30.30;72.80;;;;;;20970237;28;20032;-62
2022/07/16 16:31:34;;;;;;;6.85;5.22;;;28.30;76.10;;;;;;21050389;28;20085;-61
2022/07/16 16:41:37;;;;;;;5.95;4.43;;;27.00;80.30;;;;;;21049258;28;20569;-55
2022/07/16 16:51:39;;;;;;;8.15;5.10;;;26.20;82.70;;;;;;21053887;28;20032;-61
2022/07/16 17:01:43;;;;;;;5.25;4.70;;;25.20;85.60;;;;;;20995401;28;20097;-60
2022/07/16 17:11:45;;;;;;;6.38;5.38;;;24.10;90.00;;;;;;20996584;28;20052;-61
2022/07/16 17:21:48;;;;;;;7.65;5.07;;;23.40;90.90;;;;;;20981017;28;20036;-60
2022/07/16 17:31:51;;;;;;;6.47;5.88;;;22.80;92.10;;;;;;20978911;28;20071;-55
2022/07/16 17:41:55;;;;;;;10.32;6.78;;;22.30;93.50;;;;;;20979287;28;20044;-59
2022/07/16 17:51:59;;;;;;;7.55;6.20;;;21.80;94.40;;;;;;21052904;28;20085;-60
2022/07/16 18:02:02;;;;;;;10.18;6.95;;;21.20;95.60;;;;;;20999564;28;20110;-60
2022/07/16 18:12:06;;;;;;;8.60;6.40;;;20.60;96.80;;;;;;20957846;28;20056;-59
2022/07/16 18:22:09;;;;;;;8.27;7.20;;;20.50;97.20;;;;;;20975600;28;20040;-59
2022/07/16 18:32:11;;;;;;;10.02;7.80;;;20.20;98.30;;;;;;20975286;28;20032;-58
2022/07/16 18:42:14;;;;;;;9.45;7.80;;;19.80;99.30;;;;;;20973788;28;20552;-59
2022/07/16 18:52:16;;;;;;;10.00;8.10;;;19.40;99.90;;;;;;20972799;28;20040;-59
2022/07/16 19:02:19;;;;;;;12.70;7.43;;;19.10;99.90;;;;;;20971041;28;20036;-59
2022/07/16 19:12:22;;;;;;;9.73;7.75;;;18.80;99.90;;;;;;20969618;28;20559;-56
2022/07/16 19:22:24;;;;;;;8.70;7.70;;;18.60;99.90;;;;;;20970157;28;20102;-59
2022/07/16 19:32:27;;;;;;;9.60;8.23;;;18.40;99.90;;;;;;20968970;28;20037;-59
2022/07/16 19:42:29;;;;;;;9.32;8.20;;;18.20;99.90;;;;;;20970243;28;20041;-59
2022/07/16 19:52:32;;;;;;;11.55;9.98;;;18.00;99.90;;;;;;20969239;28;20539;-59
2022/07/16 20:02:35;;;;;;;16.42;8.90;;;17.90;99.90;;;;;;20968670;28;20036;-59
2022/07/16 20:12:38;;;;;;;10.88;9.07;;;17.90;99.90;;;;;;20966737;28;20045;-59
2022/07/16 20:22:40;;;;;;;10.45;9.05;;;18.00;99.90;;;;;;20966983;28;20066;-58
2022/07/16 20:32:44;;;;;;;9.38;8.25;;;18.00;99.90;;;;;;20982433;28;20044;-59
2022/07/16 20:42:47;;;;;;;10.57;8.63;;;17.80;99.90;;;;;;20983381;28;20044;-59
2022/07/16 20:52:49;;;;;;;10.40;9.27;;;17.90;99.90;;;;;;20982224;28;20050;-59
2022/07/16 21:02:53;;;;;;;11.23;9.27;;;17.90;99.90;;;;;;20981074;28;20040;-59
2022/07/16 21:12:55;;;;;;;9.90;8.98;;;17.90;99.90;;;;;;20981147;28;20055;-59
2022/07/16 21:22:58;;;;;;;10.48;9.10;;;17.70;99.90;;;;;;20979746;28;20106;-59
2022/07/16 21:33:03;;;;;;;10.93;8.65;;;17.60;99.90;;;;;;20963244;28;20048;-59
2022/07/16 21:43:05;;;;;;;11.75;9.27;;;17.50;99.90;;;;;;20977864;28;20066;-59
2022/07/16 21:53:08;;;;;;;9.45;8.55;;;17.40;99.90;;;;;;20977226;28;20086;-59
2022/07/16 22:03:11;;;;;;;13.35;11.15;;;17.30;99.90;;;;;;20976589;28;20087;-59
2022/07/16 22:13:14;;;;;;;10.98;9.57;;;17.20;99.90;;;;;;20975552;28;20048;-59
2022/07/16 22:23:16;;;;;;;13.32;10.70;;;17.00;99.90;;;;;;20991679;28;20101;-59
2022/07/16 22:33:19;;;;;;;15.38;12.20;;;16.90;99.90;;;;;;20974124;28;20040;-58
2022/07/16 22:43:23;;;;;;;15.23;10.55;;;16.80;99.90;;;;;;20973278;28;20033;-58
2022/07/16 22:53:25;;;;;;;15.30;12.13;;;16.80;99.90;;;;;;20971408;28;20032;-53
2022/07/16 23:03:28;;;;;;;13.45;11.05;;;16.80;99.90;;;;;;20970975;28;20021;-59
2022/07/16 23:13:31;;;;;;;12.23;10.35;;;16.90;99.90;;;;;;20970126;28;20094;-58
2022/07/16 23:23:33;;;;;;;13.02;10.35;;;16.90;99.90;;;;;;20954046;28;20074;-59
2022/07/16 23:33:36;;;;;;;15.02;12.20;;;16.80;99.90;;;;;;20968921;28;20062;-50
2022/07/16 23:43:38;;;;;;;14.15;12.45;;;16.80;99.90;;;;;;20952109;28;20024;-59
2022/07/16 23:53:41;;;;;;;14.10;12.55;;;16.70;99.90;;;;;;20968357;28;20489;-59
